createdAt,value
2022-11-14T00:04:50.642Z,89.46
2022-11-14T00:10:15.745Z,89.00
2022-11-14T00:15:40.515Z,88.79
2022-11-14T00:21:06.776Z,89.21
2022-11-14T00:26:32.038Z,89.24
2022-11-14T00:31:56.890Z,89.56
2022-11-14T00:37:22.871Z,89.45
2022-11-14T00:42:47.872Z,89.05
2022-11-14T00:48:12.945Z,89.31
2022-11-14T00:53:39.394Z,89.37
2022-11-14T00:59:04.383Z,89.80
2022-11-14T01:04:29.186Z,89.72
2022-11-14T01:09:55.152Z,89.15
2022-11-14T01:15:20.023Z,89.09
2022-11-14T01:20:46.417Z,89.38
2022-11-14T01:26:15.165Z,89.22
2022-11-14T01:31:39.629Z,89.30
2022-11-14T01:37:04.450Z,89.25
2022-11-14T01:42:30.466Z,89.32
2022-11-14T01:47:55.080Z,89.46
2022-11-14T01:53:19.881Z,89.63
2022-11-14T01:58:53.020Z,89.75
2022-11-14T02:04:22.548Z,89.87
2022-11-14T02:09:48.632Z,90.01
2022-11-14T02:15:16.082Z,90.33
2022-11-14T02:20:43.729Z,90.28
2022-11-14T02:26:08.441Z,90.13
2022-11-14T02:31:33.032Z,90.20
2022-11-14T02:36:59.293Z,90.30
2022-11-14T02:42:23.988Z,90.33
2022-11-14T02:47:48.713Z,90.32
2022-11-14T02:53:14.763Z,90.08
2022-11-14T02:58:39.599Z,90.02
2022-11-14T03:04:04.675Z,89.94
2022-11-14T03:09:31.200Z,90.04
2022-11-14T03:14:55.921Z,90.07
2022-11-14T03:20:21.028Z,89.72
2022-11-14T03:25:47.382Z,89.99
2022-11-14T03:31:14.683Z,89.96
2022-11-14T03:36:39.889Z,89.77
2022-11-14T03:42:06.395Z,89.59
2022-11-14T03:47:31.518Z,89.78
2022-11-14T03:52:56.229Z,89.96
2022-11-14T03:58:22.358Z,89.51
2022-11-14T04:03:47.097Z,89.38
2022-11-14T04:09:12.700Z,89.33
2022-11-14T04:14:38.973Z,89.42
2022-11-14T04:20:03.970Z,89.49
2022-11-14T04:25:28.543Z,89.42
2022-11-14T04:30:54.989Z,89.59
2022-11-14T04:36:19.772Z,89.81
2022-11-14T04:41:44.631Z,89.64
2022-11-14T04:47:10.830Z,89.49
2022-11-14T04:52:35.312Z,89.38
2022-11-14T04:58:00.943Z,89.56
2022-11-14T05:03:27.415Z,89.53
2022-11-14T05:08:52.037Z,89.48
2022-11-14T05:14:16.842Z,89.65
2022-11-14T05:19:42.799Z,89.73
2022-11-14T05:25:10.897Z,89.61
2022-11-14T05:30:35.807Z,89.22
2022-11-14T05:36:07.274Z,89.31
2022-11-14T05:41:31.973Z,89.47
2022-11-14T05:46:56.596Z,89.10
2022-11-14T05:52:22.863Z,89.32
2022-11-14T05:57:47.943Z,89.12
2022-11-14T06:03:14.075Z,89.07
2022-11-14T06:08:40.834Z,89.08
2022-11-14T06:14:10.590Z,88.84
2022-11-14T06:19:36.332Z,88.59
2022-11-14T06:25:02.528Z,88.91
2022-11-14T06:30:27.400Z,88.67
2022-11-14T06:35:51.903Z,88.83
2022-11-14T06:41:20.541Z,89.06
2022-11-14T06:46:45.683Z,88.77
2022-11-14T06:52:10.448Z,88.82
2022-11-14T06:57:36.328Z,88.20
2022-11-14T07:03:01.358Z,88.39
2022-11-14T07:08:26.384Z,88.44
2022-11-14T07:13:52.865Z,88.71
2022-11-14T07:19:17.861Z,88.48
2022-11-14T07:24:42.674Z,88.51
2022-11-14T07:30:10.341Z,88.37
2022-11-14T07:35:35.261Z,88.26
2022-11-14T07:41:02.193Z,88.38
2022-11-14T07:46:28.394Z,88.46
2022-11-14T07:51:53.037Z,88.28
2022-11-14T07:57:17.686Z,87.96
2022-11-14T08:02:43.855Z,87.95
2022-11-14T08:08:08.581Z,87.73
2022-11-14T08:13:34.045Z,87.13
2022-11-14T08:19:00.418Z,86.80
2022-11-14T08:24:24.950Z,86.78
2022-11-14T08:29:51.501Z,86.30
2022-11-14T08:35:18.272Z,86.04
2022-11-14T08:40:42.692Z,85.97
2022-11-14T08:46:08.305Z,86.12
2022-11-14T08:51:36.452Z,86.05
2022-11-14T08:57:01.294Z,86.20
2022-11-14T09:02:26.005Z,85.98
2022-11-14T09:07:52.188Z,85.63
2022-11-14T09:13:17.251Z,85.91
2022-11-14T09:18:42.419Z,85.86
2022-11-14T09:24:10.165Z,86.13
2022-11-14T09:29:35.565Z,86.44
2022-11-14T09:35:00.202Z,85.97
2022-11-14T09:40:26.486Z,86.13
2022-11-14T09:45:55.229Z,86.42
2022-11-14T09:51:25.271Z,86.25
2022-11-14T09:56:51.790Z,86.57
2022-11-14T10:02:41.658Z,86.11
2022-11-14T10:08:45.544Z,85.80
2022-11-14T10:15:02.859Z,86.18
2022-11-14T10:20:37.797Z,85.27
2022-11-14T10:26:17.243Z,85.36
2022-11-14T10:31:54.413Z,85.02
2022-11-14T10:37:26.763Z,85.05
2022-11-14T10:42:57.018Z,85.56
2022-11-14T10:48:33.015Z,85.38
2022-11-14T10:54:05.950Z,84.80
2022-11-14T10:59:31.413Z,84.78
2022-11-14T11:05:06.205Z,84.50
2022-11-14T11:10:52.241Z,84.30
2022-11-14T11:16:21.372Z,84.48
2022-11-14T11:21:50.451Z,84.48
2022-11-14T11:27:23.061Z,83.91
2022-11-14T11:32:47.689Z,83.84
2022-11-14T11:38:15.886Z,83.74
2022-11-14T11:43:55.517Z,83.57
2022-11-14T11:49:38.599Z,83.79
2022-11-14T11:55:16.729Z,83.92
2022-11-14T12:00:43.296Z,84.10
2022-11-14T12:06:17.726Z,83.61
2022-11-14T12:11:48.554Z,83.48
2022-11-14T12:18:12.794Z,83.61
2022-11-14T12:24:37.015Z,83.23
2022-11-14T12:30:17.115Z,83.13
2022-11-14T12:35:53.410Z,83.69
2022-11-14T12:41:27.094Z,84.23
2022-11-14T12:47:16.118Z,84.21
2022-11-14T12:52:54.403Z,83.10
2022-11-14T12:58:44.576Z,83.47
2022-11-14T13:04:25.995Z,83.93
2022-11-14T13:10:22.174Z,83.89
2022-11-14T13:16:11.108Z,84.39
2022-11-14T13:21:48.171Z,84.41
2022-11-14T13:27:52.204Z,84.31
2022-11-14T13:33:44.624Z,84.83
2022-11-14T13:39:32.043Z,84.10
2022-11-14T13:45:45.574Z,84.19
2022-11-14T13:51:41.853Z,83.79
2022-11-14T13:57:13.297Z,83.65
2022-11-14T14:03:25.358Z,83.90
2022-11-14T14:09:14.341Z,83.69
2022-11-14T14:15:11.125Z,84.19
2022-11-14T14:20:46.829Z,84.64
2022-11-14T14:26:28.522Z,83.58
2022-11-14T14:31:53.517Z,84.34
2022-11-14T14:37:25.812Z,84.41
2022-11-14T14:42:51.152Z,84.11
2022-11-14T14:48:19.745Z,84.48
2022-11-14T14:53:55.041Z,84.99
2022-11-14T14:59:23.156Z,84.82
2022-11-14T15:04:47.833Z,84.58
2022-11-14T15:10:25.435Z,85.10
2022-11-14T15:15:52.013Z,84.80
2022-11-14T15:21:27.639Z,84.94
2022-11-14T15:26:54.217Z,84.78
2022-11-14T15:32:22.958Z,84.68
2022-11-14T15:38:36.701Z,84.34
2022-11-14T15:43:57.883Z,84.27
2022-11-14T15:49:26.382Z,84.48
2022-11-14T15:54:51.753Z,84.78
2022-11-14T16:00:21.403Z,85.18
2022-11-14T16:05:47.487Z,85.28
2022-11-14T16:11:12.161Z,85.39
2022-11-14T16:16:40.446Z,84.43
2022-11-14T16:22:05.515Z,84.72
2022-11-14T16:27:30.270Z,84.21
2022-11-14T16:32:56.661Z,84.48
2022-11-14T16:38:21.401Z,84.04
2022-11-14T16:43:46.614Z,84.41
2022-11-14T16:49:15.711Z,84.14
2022-11-14T16:54:41.082Z,84.29
2022-11-14T17:00:07.825Z,84.30
2022-11-14T17:05:34.400Z,84.38
2022-11-14T17:11:00.212Z,83.64
2022-11-14T17:16:26.444Z,84.00
2022-11-14T17:21:53.595Z,83.41
2022-11-14T17:27:19.023Z,82.97
2022-11-14T17:32:44.048Z,83.66
2022-11-14T17:38:11.254Z,84.08
2022-11-14T17:43:39.992Z,83.91
2022-11-14T17:49:06.865Z,84.26
2022-11-14T17:54:38.087Z,83.87
2022-11-14T18:00:09.968Z,84.10
2022-11-14T18:05:35.067Z,83.85
2022-11-14T18:11:04.802Z,83.84
2022-11-14T18:16:57.459Z,84.23
2022-11-14T18:22:18.526Z,84.00
2022-11-14T18:27:46.093Z,84.53
2022-11-14T18:33:11.776Z,83.92
2022-11-14T18:38:38.067Z,84.08
2022-11-14T18:44:06.337Z,83.68
2022-11-14T18:49:32.419Z,84.03
2022-11-14T18:54:58.544Z,83.50
2022-11-14T19:00:26.911Z,83.93
2022-11-14T19:05:53.006Z,83.74
2022-11-14T19:11:38.021Z,83.41
2022-11-14T19:17:05.446Z,83.88
2022-11-14T19:22:31.997Z,83.67
2022-11-14T19:27:58.495Z,83.32
2022-11-14T19:33:25.887Z,83.80
2022-11-14T19:38:56.731Z,83.92
2022-11-14T19:44:22.491Z,83.46
2022-11-14T19:49:50.518Z,83.48
2022-11-14T19:55:16.831Z,83.59
2022-11-14T20:00:51.634Z,84.03
2022-11-14T20:06:22.490Z,83.86
2022-11-14T20:11:48.396Z,84.07
2022-11-14T20:17:14.479Z,84.34
2022-11-14T20:22:42.206Z,84.41
2022-11-14T20:28:10.479Z,84.22
2022-11-14T20:33:42.174Z,84.47
2022-11-14T20:39:09.675Z,84.34
2022-11-14T20:44:36.545Z,84.64
2022-11-14T20:50:03.654Z,84.24
2022-11-14T20:55:31.406Z,84.24
2022-11-14T21:00:57.255Z,84.36
2022-11-14T21:06:22.046Z,84.48
2022-11-14T21:11:48.594Z,84.30
2022-11-14T21:17:13.954Z,84.46
2022-11-14T21:22:38.879Z,84.83
2022-11-14T21:28:05.019Z,84.94
2022-11-14T21:33:32.702Z,84.90
2022-11-14T21:38:58.489Z,84.87
2022-11-14T21:44:25.059Z,84.70
2022-11-14T21:49:51.000Z,84.82
2022-11-14T21:55:17.330Z,85.11
2022-11-14T22:00:43.911Z,85.23
2022-11-14T22:06:09.427Z,85.30
2022-11-14T22:11:34.477Z,85.28
2022-11-14T22:17:00.490Z,85.38
2022-11-14T22:22:25.073Z,85.04
2022-11-14T22:27:49.819Z,85.51
2022-11-14T22:33:15.970Z,85.31
2022-11-14T22:38:41.668Z,85.34
2022-11-14T22:44:06.809Z,85.21
2022-11-14T22:49:33.019Z,85.13
2022-11-14T22:54:58.246Z,85.39
2022-11-14T23:00:22.958Z,85.23
2022-11-14T23:05:50.187Z,85.20
2022-11-14T23:11:18.333Z,85.00
2022-11-14T23:16:43.100Z,85.31
2022-11-14T23:22:09.518Z,85.22
2022-11-14T23:27:34.897Z,85.11
2022-11-14T23:32:59.613Z,85.03
2022-11-14T23:44:07.991Z,85.17
2022-11-14T23:49:32.894Z,84.99
2022-11-14T23:54:59.397Z,85.35
